createdAt,value
2022-11-14T00:01:34.935Z,20.5
2022-11-14T00:04:36.874Z,20.2
2022-11-14T00:07:38.852Z,21.4
2022-11-14T00:10:40.792Z,18.2
2022-11-14T00:13:42.829Z,20
2022-11-14T00:16:44.761Z,19
2022-11-14T00:19:46.761Z,22.3
2022-11-14T00:22:48.686Z,20.9
2022-11-14T00:25:50.639Z,19.8
2022-11-14T00:28:52.598Z,21.2
2022-11-14T00:31:54.556Z,19.2
2022-11-14T00:34:56.544Z,17.9
2022-11-14T00:37:58.526Z,18.8
2022-11-14T00:41:00.487Z,15.7
2022-11-14T00:44:02.445Z,17.2
2022-11-14T00:47:04.404Z,17.7
2022-11-14T00:50:06.364Z,16.5
2022-11-14T00:53:08.288Z,16.8
2022-11-14T00:56:10.258Z,15.5
2022-11-14T00:59:12.215Z,16.4
2022-11-14T01:02:14.203Z,16.5
2022-11-14T01:05:16.179Z,16.4
2022-11-14T01:08:18.155Z,14.9
2022-11-14T01:11:20.085Z,16.5
2022-11-14T01:14:22.043Z,14.4
2022-11-14T01:17:24.001Z,14.4
2022-11-14T01:20:26.010Z,15.9
2022-11-14T01:23:27.924Z,14.6
2022-11-14T01:26:29.916Z,16.6
2022-11-14T01:29:31.840Z,15.8
2022-11-14T01:32:33.854Z,14.1
2022-11-14T01:35:35.776Z,15.8
2022-11-14T01:38:37.713Z,13.1
2022-11-14T01:41:39.693Z,17.9
2022-11-14T01:44:41.652Z,13.9
2022-11-14T01:47:43.656Z,15.9
2022-11-14T01:50:45.648Z,14.5
2022-11-14T01:53:47.565Z,16
2022-11-14T01:56:49.519Z,13.6
2022-11-14T01:59:51.485Z,14.2
2022-11-14T02:02:53.450Z,16.1
2022-11-14T02:05:55.399Z,16
2022-11-14T02:08:57.364Z,15.2
2022-11-14T02:11:59.332Z,15.3
2022-11-14T02:15:01.304Z,15.8
2022-11-14T02:18:03.260Z,13.5
2022-11-14T02:21:05.264Z,17.7
2022-11-14T02:24:07.220Z,14.3
2022-11-14T02:27:09.160Z,15.8
2022-11-14T02:30:11.170Z,14.8
2022-11-14T02:33:13.080Z,14.8
2022-11-14T02:36:15.066Z,15.3
2022-11-14T02:39:17.017Z,13.9
2022-11-14T02:42:19.035Z,13.8
2022-11-14T02:45:21.001Z,13.3
2022-11-14T02:48:22.922Z,14.7
2022-11-14T02:51:24.880Z,14.3
2022-11-14T02:54:26.850Z,15.6
2022-11-14T02:57:28.815Z,14.5
2022-11-14T03:00:30.865Z,13.3
2022-11-14T03:03:32.744Z,14.4
2022-11-14T03:06:34.717Z,12.3
2022-11-14T03:09:36.664Z,14.3
2022-11-14T03:12:38.623Z,14.1
2022-11-14T03:15:40.633Z,11.5
2022-11-14T03:18:42.558Z,15.4
2022-11-14T03:21:44.515Z,12.4
2022-11-14T03:24:46.475Z,14.5
2022-11-14T03:27:48.441Z,12.6
2022-11-14T03:30:50.406Z,14.7
2022-11-14T03:33:52.369Z,13.4
2022-11-14T03:36:54.335Z,13.1
2022-11-14T03:39:56.303Z,12.1
2022-11-14T03:42:58.288Z,12.8
2022-11-14T03:46:00.240Z,13.9
2022-11-14T03:49:02.197Z,12.9
2022-11-14T03:52:04.181Z,15
2022-11-14T03:55:06.150Z,12.8
2022-11-14T03:58:08.103Z,12
2022-11-14T04:01:10.070Z,14.5
2022-11-14T04:04:12.004Z,11.7
2022-11-14T04:07:14.039Z,12.2
2022-11-14T04:10:15.913Z,14.4
2022-11-14T04:13:17.871Z,10.6
2022-11-14T04:16:19.854Z,11.2
2022-11-14T04:19:21.816Z,10.8
2022-11-14T04:22:23.786Z,12.8
2022-11-14T04:25:25.745Z,11.8
2022-11-14T04:28:27.977Z,10.6
2022-11-14T04:31:29.695Z,11.3
2022-11-14T04:34:31.680Z,10.9
2022-11-14T04:37:33.608Z,10.5
2022-11-14T04:40:35.600Z,10.5
2022-11-14T04:43:37.532Z,10.8
2022-11-14T04:46:39.491Z,12
2022-11-14T04:49:41.449Z,11.7
2022-11-14T04:52:43.413Z,12.6
2022-11-14T04:55:45.380Z,13.7
2022-11-14T04:58:47.347Z,11.5
2022-11-14T05:01:49.479Z,9.8
2022-11-14T05:04:51.270Z,12.4
2022-11-14T05:07:53.232Z,11
2022-11-14T05:10:55.200Z,11.6
2022-11-14T05:13:57.174Z,10.2
2022-11-14T05:16:59.161Z,12.1
2022-11-14T05:20:01.113Z,13.1
2022-11-14T05:23:03.132Z,12.9
2022-11-14T05:26:05.057Z,11
2022-11-14T05:29:07.010Z,12.2
2022-11-14T05:32:12.382Z,13.1
2022-11-14T05:35:10.985Z,14.8
2022-11-14T05:38:12.944Z,12.4
2022-11-14T05:41:14.869Z,11
2022-11-14T05:44:16.844Z,12.2
2022-11-14T05:47:18.781Z,9.9
2022-11-14T05:50:20.894Z,13.1
2022-11-14T05:53:22.737Z,10
2022-11-14T05:56:24.703Z,12.8
2022-11-14T05:59:26.634Z,11.8
2022-11-14T06:02:28.623Z,13.9
2022-11-14T06:05:30.556Z,12
2022-11-14T06:08:32.767Z,14.6
2022-11-14T06:11:34.496Z,12.2
2022-11-14T06:14:36.485Z,16.4
2022-11-14T06:17:38.414Z,20
2022-11-14T06:20:40.408Z,16.6
2022-11-14T06:23:42.386Z,21.6
2022-11-14T06:26:44.314Z,20.1
2022-11-14T06:29:46.308Z,22.3
2022-11-14T06:32:48.245Z,22.8
2022-11-14T06:35:50.221Z,25.9
2022-11-14T06:38:52.208Z,28.5
2022-11-14T06:41:54.188Z,25.4
2022-11-14T06:44:56.164Z,28.8
2022-11-14T06:47:58.241Z,30.4
2022-11-14T06:51:00.113Z,26.3
2022-11-14T06:54:02.077Z,26.3
2022-11-14T06:57:04.063Z,26.4
2022-11-14T07:00:06.027Z,31.6
2022-11-14T07:03:07.976Z,28.7
2022-11-14T07:06:09.922Z,35.2
2022-11-14T07:09:11.872Z,35.1
2022-11-14T07:12:13.849Z,33.1
2022-11-14T07:15:15.800Z,31.6
2022-11-14T07:18:17.766Z,31.2
2022-11-14T07:21:19.722Z,33.3
2022-11-14T07:24:21.706Z,30.6
2022-11-14T07:27:23.770Z,32.1
2022-11-14T07:30:25.620Z,36.4
2022-11-14T07:33:27.592Z,39.6
2022-11-14T07:36:29.551Z,34.2
2022-11-14T07:39:31.552Z,34
2022-11-14T07:42:33.499Z,34.8
2022-11-14T07:45:35.512Z,32.2
2022-11-14T07:48:37.456Z,33.5
2022-11-14T07:51:39.418Z,31.7
2022-11-14T07:54:41.360Z,32.8
2022-11-14T07:57:48.007Z,36.7
2022-11-14T08:00:45.312Z,36.2
2022-11-14T08:03:47.523Z,30.8
2022-11-14T08:06:49.235Z,40.6
2022-11-14T08:09:51.165Z,30.7
2022-11-14T08:13:04.830Z,35.1
2022-11-14T08:15:55.276Z,33.8
2022-11-14T08:18:57.242Z,32.3
2022-11-14T08:21:59.235Z,32.1
2022-11-14T08:25:01.167Z,34.4
2022-11-14T08:28:03.124Z,28.1
2022-11-14T08:31:05.090Z,33.4
2022-11-14T08:34:07.094Z,31.8
2022-11-14T08:37:09.017Z,35.1
2022-11-14T08:40:11.066Z,34.1
2022-11-14T08:43:12.992Z,32.9
2022-11-14T08:46:15.021Z,33.9
2022-11-14T08:49:16.935Z,37.3
2022-11-14T08:52:18.916Z,34.2
2022-11-14T08:55:20.863Z,32.4
2022-11-14T08:58:22.829Z,31.9
2022-11-14T09:01:24.800Z,33.6
2022-11-14T09:04:26.781Z,30.7
2022-11-14T09:07:28.847Z,32.5
2022-11-14T09:10:30.706Z,34.3
2022-11-14T09:13:32.788Z,35.2
2022-11-14T09:16:34.635Z,32.5
2022-11-14T09:19:36.598Z,28.5
2022-11-14T09:22:38.563Z,26.6
2022-11-14T09:25:40.541Z,27.5
2022-11-14T09:28:42.533Z,24.9
2022-11-14T09:31:44.506Z,26.2
2022-11-14T09:34:46.434Z,23
2022-11-14T09:37:48.403Z,24
2022-11-14T09:40:50.427Z,25.8
2022-11-14T09:43:52.361Z,21.1
2022-11-14T09:46:54.350Z,22.1
2022-11-14T09:49:56.296Z,23
2022-11-14T09:52:58.287Z,21.4
2022-11-14T09:56:00.249Z,25.7
2022-11-14T09:59:02.207Z,24.9
2022-11-14T10:02:04.250Z,22.2
2022-11-14T10:05:06.170Z,21.7
2022-11-14T10:08:08.094Z,22.3
2022-11-14T10:11:10.061Z,20.6
2022-11-14T10:14:12.032Z,22.5
2022-11-14T10:17:13.988Z,17.4
2022-11-14T10:20:15.963Z,16.3
2022-11-14T10:23:17.960Z,20.7
2022-11-14T10:26:19.946Z,19.3
2022-11-14T10:29:21.864Z,16.9
2022-11-14T10:32:23.886Z,18.3
2022-11-14T10:35:26.577Z,16.5
2022-11-14T10:38:27.915Z,20
2022-11-14T10:41:50.276Z,19.8
2022-11-14T10:44:31.762Z,15.9
2022-11-14T10:47:33.689Z,17.1
2022-11-14T10:50:35.675Z,17
2022-11-14T10:53:37.659Z,16.7
2022-11-14T10:56:39.590Z,19.9
2022-11-14T10:59:41.549Z,16.5
2022-11-14T11:02:43.547Z,16.8
2022-11-14T11:05:45.506Z,16.5
2022-11-14T11:08:47.666Z,18.3
2022-11-14T11:11:49.412Z,15.9
2022-11-14T11:14:51.374Z,19
2022-11-14T11:17:53.320Z,13.5
2022-11-14T11:20:55.326Z,14.9
2022-11-14T11:23:57.251Z,13.2
2022-11-14T11:26:59.240Z,19.5
2022-11-14T11:30:01.194Z,14.5
2022-11-14T11:33:03.176Z,17.5
2022-11-14T11:36:05.153Z,15.5
2022-11-14T11:39:07.088Z,15.9
2022-11-14T11:42:10.418Z,17.2
2022-11-14T11:45:11.012Z,15.3
2022-11-14T11:48:13.006Z,14.1
2022-11-14T11:51:14.937Z,11.5
2022-11-14T11:54:16.901Z,13.7
2022-11-14T11:57:21.828Z,13.5
2022-11-14T12:00:20.857Z,15.8
2022-11-14T12:03:22.879Z,11.6
2022-11-14T12:06:24.801Z,13.6
2022-11-14T12:09:37.280Z,15.1
2022-11-14T12:12:28.704Z,10.9
2022-11-14T12:15:30.669Z,10.7
2022-11-14T12:18:32.645Z,12
2022-11-14T12:21:34.624Z,11.5
2022-11-14T12:24:36.577Z,11.3
2022-11-14T12:27:38.621Z,8.5
2022-11-14T12:30:40.528Z,10.9
2022-11-14T12:33:42.452Z,10
2022-11-14T12:36:44.400Z,11.5
2022-11-14T12:39:46.359Z,9.7
2022-11-14T12:42:48.340Z,10
2022-11-14T12:45:50.285Z,8.2
2022-11-14T12:48:52.282Z,9.1
2022-11-14T12:51:54.261Z,8.7
2022-11-14T12:54:56.422Z,7
2022-11-14T12:57:58.212Z,7.2
2022-11-14T13:01:00.300Z,7.1
2022-11-14T13:04:02.123Z,11.7
2022-11-14T13:07:04.103Z,11.2
2022-11-14T13:10:06.054Z,7.6
2022-11-14T13:13:08.014Z,11.2
2022-11-14T13:16:10.023Z,6.9
2022-11-14T13:19:11.949Z,6.7
2022-11-14T13:22:13.896Z,9.6
2022-11-14T13:25:15.860Z,8.6
2022-11-14T13:28:24.671Z,8.6
2022-11-14T13:31:19.946Z,10.7
2022-11-14T13:34:21.730Z,8
2022-11-14T13:37:23.695Z,8.7
2022-11-14T13:40:25.660Z,8.7
2022-11-14T13:43:27.756Z,8.7
2022-11-14T13:46:29.609Z,8.3
2022-11-14T13:49:31.565Z,8.3
2022-11-14T13:52:33.530Z,7.9
2022-11-14T13:55:35.490Z,9.1
2022-11-14T13:58:37.460Z,9.7
2022-11-14T14:01:39.513Z,9.4
2022-11-14T14:04:41.412Z,8.9
2022-11-14T14:07:43.333Z,11
2022-11-14T14:10:45.300Z,9.9
2022-11-14T14:13:51.090Z,10
2022-11-14T14:16:49.239Z,10.5
2022-11-14T14:19:51.235Z,9.5
2022-11-14T14:22:53.173Z,9.2
2022-11-14T14:25:55.165Z,7.6
2022-11-14T14:28:57.111Z,9.2
2022-11-14T14:31:59.064Z,8.5
2022-11-14T14:35:01.053Z,8.2
2022-11-14T14:38:03.022Z,6.2
2022-11-14T14:41:05.065Z,9.1
2022-11-14T14:44:06.978Z,6.7
2022-11-14T14:47:08.907Z,7.9
2022-11-14T14:50:10.961Z,5.5
2022-11-14T14:53:12.864Z,6.9
2022-11-14T14:56:14.834Z,6.2
2022-11-14T14:59:16.847Z,6
2022-11-14T15:02:18.818Z,8.2
2022-11-14T15:05:20.726Z,5.9
2022-11-14T15:08:22.682Z,6.3
2022-11-14T15:11:27.334Z,7.8
2022-11-14T15:14:26.620Z,5.8
2022-11-14T15:17:33.057Z,5.4
2022-11-14T15:20:30.528Z,4.9
2022-11-14T15:23:32.530Z,5.8
2022-11-14T15:26:34.434Z,4.4
2022-11-14T15:29:36.394Z,6.1
2022-11-14T15:32:38.360Z,5.2
2022-11-14T15:35:40.372Z,5
2022-11-14T15:38:44.835Z,4
2022-11-14T15:39:56.716Z,4
2022-11-14T15:41:44.251Z,6.8
2022-11-14T15:44:46.211Z,6.3
2022-11-14T15:47:48.175Z,4.5
2022-11-14T15:50:50.143Z,6.1
2022-11-14T15:53:52.105Z,4.8
2022-11-14T15:56:54.082Z,4.7
2022-11-14T15:59:56.012Z,6.6
2022-11-14T16:02:57.979Z,4.8
2022-11-14T16:05:59.964Z,4.8
2022-11-14T16:09:01.920Z,4.5
2022-11-14T16:12:03.879Z,5.2
2022-11-14T16:15:05.853Z,4.7
2022-11-14T16:18:07.818Z,4.1
2022-11-14T16:21:09.768Z,4.9
2022-11-14T16:24:11.751Z,4.8
2022-11-14T16:27:13.704Z,5.2
2022-11-14T16:30:15.652Z,6.8
2022-11-14T16:33:17.612Z,7.3
2022-11-14T16:36:19.562Z,6.6
2022-11-14T16:39:21.516Z,6.7
2022-11-14T16:42:23.486Z,5.5
2022-11-14T16:45:25.451Z,9.5
2022-11-14T16:48:27.428Z,7.7
2022-11-14T16:51:46.553Z,10.7
2022-11-14T16:54:31.367Z,9.3
2022-11-14T16:57:33.322Z,7.9
2022-11-14T17:00:35.272Z,7.7
2022-11-14T17:03:37.236Z,9.4
2022-11-14T17:06:39.183Z,8
2022-11-14T17:09:41.170Z,7.7
2022-11-14T17:12:43.111Z,8
2022-11-14T17:15:45.089Z,8.6
2022-11-14T17:18:47.048Z,9.2
2022-11-14T17:21:49.017Z,9.1
2022-11-14T17:24:50.968Z,8.9
2022-11-14T17:27:52.939Z,9.1
2022-11-14T17:30:54.922Z,8.9
2022-11-14T17:33:56.886Z,8.4
2022-11-14T17:36:58.848Z,6.7
2022-11-14T17:40:00.832Z,7.3
2022-11-14T17:43:02.802Z,9.3
2022-11-14T17:46:04.773Z,7.7
2022-11-14T17:49:06.746Z,7.1
2022-11-14T17:52:08.695Z,7.2
2022-11-14T17:55:10.684Z,8.4
2022-11-14T17:58:12.632Z,8.5
2022-11-14T18:01:14.660Z,9.1
2022-11-14T18:04:16.598Z,6
2022-11-14T18:07:18.625Z,6.9
2022-11-14T18:10:20.537Z,7.8
2022-11-14T18:13:22.466Z,10.6
2022-11-14T18:16:26.453Z,6.6
2022-11-14T18:19:26.366Z,6.6
2022-11-14T18:22:28.356Z,8.1
2022-11-14T18:25:30.321Z,7.4
2022-11-14T18:28:32.645Z,7
2022-11-14T18:31:34.292Z,9.1
2022-11-14T18:34:36.219Z,7
2022-11-14T18:37:38.175Z,7.5
2022-11-14T18:40:40.242Z,9.3
2022-11-14T18:43:42.126Z,10
2022-11-14T18:46:44.089Z,10.6
2022-11-14T18:49:46.059Z,14.8
2022-11-14T18:52:48.025Z,13.9
2022-11-14T18:55:50.089Z,9.9
2022-11-14T18:58:51.945Z,11.4
2022-11-14T19:01:53.941Z,11.8
2022-11-14T19:04:55.884Z,10.3
2022-11-14T19:07:57.837Z,10.1
2022-11-14T19:10:59.840Z,25.9
2022-11-14T19:14:01.783Z,14.2
2022-11-14T19:17:03.747Z,13.6
2022-11-14T19:20:08.842Z,12
2022-11-14T19:23:07.685Z,11.6
2022-11-14T19:26:09.671Z,13.4
2022-11-14T19:29:11.602Z,10.2
2022-11-14T19:32:13.578Z,8.6
2022-11-14T19:35:20.211Z,10
2022-11-14T19:38:17.510Z,10.5
2022-11-14T19:41:19.472Z,9.6
2022-11-14T19:44:21.421Z,9.7
2022-11-14T19:47:23.395Z,7.4
2022-11-14T19:50:25.354Z,6.8
2022-11-14T19:53:27.427Z,12.1
2022-11-14T19:56:29.303Z,9.7
2022-11-14T19:59:31.293Z,11.2
2022-11-14T20:02:33.244Z,9.1
2022-11-14T20:05:35.214Z,16.2
2022-11-14T20:08:37.173Z,9.6
2022-11-14T20:11:39.140Z,8.2
2022-11-14T20:14:41.113Z,10.3
2022-11-14T20:17:43.093Z,8.5
2022-11-14T20:20:45.057Z,11.6
2022-11-14T20:23:47.012Z,7.9
2022-11-14T20:26:48.989Z,13.8
2022-11-14T20:29:50.945Z,13.9
2022-11-14T20:32:52.915Z,10.7
2022-11-14T20:35:54.890Z,11.8
2022-11-14T20:38:56.886Z,11.7
2022-11-14T20:41:58.847Z,10.1
2022-11-14T20:45:00.794Z,11.1
2022-11-14T20:48:02.801Z,11.9
2022-11-14T20:51:04.716Z,12.8
2022-11-14T20:54:06.729Z,12.9
2022-11-14T20:57:08.671Z,11.6
2022-11-14T21:00:10.633Z,12.3
2022-11-14T21:03:12.634Z,9.5
2022-11-14T21:06:14.570Z,12.1
2022-11-14T21:09:16.524Z,11
2022-11-14T21:12:18.488Z,10.8
2022-11-14T21:15:20.560Z,9.9
2022-11-14T21:18:22.438Z,9.6
2022-11-14T21:21:24.391Z,11.2
2022-11-14T21:24:26.363Z,15.6
2022-11-14T21:27:28.312Z,15.8
2022-11-14T21:30:30.281Z,10.1
2022-11-14T21:33:32.438Z,9.8
2022-11-14T21:36:46.206Z,10.3
2022-11-14T21:39:36.236Z,14.2
2022-11-14T21:42:38.144Z,11.4
2022-11-14T21:45:40.125Z,14.4
2022-11-14T21:48:42.093Z,12.8
2022-11-14T21:51:44.025Z,12.8
2022-11-14T21:54:45.995Z,11.1
2022-11-14T21:57:47.954Z,13
2022-11-14T22:00:50.004Z,11.6
2022-11-14T22:03:51.882Z,14.7
2022-11-14T22:06:53.904Z,13.8
2022-11-14T22:09:55.813Z,12.9
2022-11-14T22:12:57.780Z,12.7
2022-11-14T22:15:59.741Z,12.1
2022-11-14T22:19:05.178Z,11.6
2022-11-14T22:22:03.654Z,12.8
2022-11-14T22:25:05.611Z,13.6
2022-11-14T22:28:07.574Z,14.9
2022-11-14T22:31:09.551Z,14.1
2022-11-14T22:37:13.490Z,10.6
2022-11-14T22:40:15.459Z,11.1
2022-11-14T22:43:17.403Z,13.9
2022-11-14T22:46:19.375Z,16.1
2022-11-14T22:49:21.483Z,16
2022-11-14T22:52:23.291Z,12.3
2022-11-14T22:55:25.264Z,13.3
2022-11-14T22:58:27.225Z,14.3
2022-11-14T23:01:29.171Z,14.4
2022-11-14T23:04:31.135Z,16.7
2022-11-14T23:07:33.145Z,12.8
2022-11-14T23:10:35.043Z,11.8
2022-11-14T23:13:37.017Z,11.8
2022-11-14T23:16:38.984Z,10.4
2022-11-14T23:19:40.937Z,12.1
2022-11-14T23:22:42.912Z,13.4
2022-11-14T23:25:44.879Z,11.2
2022-11-14T23:28:46.826Z,13.9
2022-11-14T23:31:48.797Z,14.6
2022-11-14T23:34:50.798Z,14.9
2022-11-14T23:37:52.706Z,14.6
2022-11-14T23:40:54.668Z,12.3
2022-11-14T23:43:56.631Z,10.5
2022-11-14T23:46:58.599Z,12.2
2022-11-14T23:50:00.590Z,13.4
2022-11-14T23:53:02.543Z,11.6
2022-11-14T23:56:04.504Z,9.9
2022-11-14T23:59:06.467Z,13.1
